Time;durP1;ratioP1;P1;durP2;ratioP2;P2;SDS_P1;SDS_P2;PMS_P1;PMS_P2;Temp;Humidity;BMP_temperature;BMP_pressure;BME280_temperature;BME280_humidity;BME280_pressure;Samples;Min_cycle;Max_cycle;Signal;HPM_P1;HPM_P2
2021/06/25 00:00:30;;;;;;;2.67;1.85;;;;;;;-146.52;100.00;63329.72;1024491;29;20058;-83
2021/06/25 00:01:00;;;;;;;2.25;1.70;;;;;;;-146.52;100.00;63329.72;1021092;29;20110;-84
2021/06/25 00:01:31;;;;;;;4.05;1.90;;;;;;;-146.52;100.00;63329.72;1021172;29;20067;-83
2021/06/25 00:02:02;;;;;;;3.35;2.38;;;;;;;-146.52;100.00;63329.72;1020823;29;20020;-82
2021/06/25 00:02:33;;;;;;;2.55;1.60;;;;;;;-146.52;100.00;63329.72;1020735;29;20008;-82
2021/06/25 00:03:03;;;;;;;2.33;1.90;;;;;;;-146.52;100.00;63329.72;1014952;29;20040;-83
2021/06/25 00:03:34;;;;;;;2.42;1.90;;;;;;;-146.52;100.00;63329.72;1018845;29;20024;-82
2021/06/25 00:04:04;;;;;;;3.05;1.70;;;;;;;-146.52;100.00;63329.72;1015323;29;20032;-82
2021/06/25 00:04:35;;;;;;;3.47;2.05;;;;;;;-146.52;100.00;63329.72;1019435;29;20514;-83
2021/06/25 00:05:07;;;;;;;4.30;2.10;;;;;;;-146.52;100.00;63329.72;1015656;29;20020;-82
2021/06/25 00:05:37;;;;;;;6.03;2.10;;;;;;;-146.52;100.00;63329.72;1015914;29;20024;-82
2021/06/25 00:06:08;;;;;;;2.72;1.95;;;;;;;-146.52;100.00;63329.72;1015560;29;20088;-81
2021/06/25 00:06:38;;;;;;;2.83;1.70;;;;;;;-146.52;100.00;63329.72;1014901;29;20028;-82
2021/06/25 00:07:09;;;;;;;3.88;1.98;;;;;;;-146.52;100.00;63329.72;1010926;29;20036;-84
2021/06/25 00:07:40;;;;;;;3.50;1.92;;;;;;;-146.52;100.00;63329.72;1011217;29;20084;-82
2021/06/25 00:08:10;;;;;;;5.90;2.05;;;;;;;-146.52;100.00;63329.72;1019436;29;20116;-82
2021/06/25 00:08:41;;;;;;;2.20;1.90;;;;;;;-146.52;100.00;63329.72;1014993;29;20104;-82
2021/06/25 00:09:11;;;;;;;2.55;1.75;;;;;;;-146.52;100.00;63329.72;1022872;29;20059;-83
2021/06/25 00:09:42;;;;;;;5.65;1.88;;;;;;;-146.52;100.00;63329.72;1022922;29;20015;-82
2021/06/25 00:10:13;;;;;;;2.45;2.00;;;;;;;-146.52;100.00;63329.72;1017794;29;20016;-86
2021/06/25 00:10:43;;;;;;;3.83;1.98;;;;;;;-146.52;100.00;63329.72;1017300;29;20103;-83
2021/06/25 00:11:14;;;;;;;2.75;1.60;;;;;;;-146.52;100.00;63329.72;1015254;29;20028;-84
2021/06/25 00:11:45;;;;;;;2.97;1.77;;;;;;;-146.52;100.00;63329.72;1013576;29;20112;-84
2021/06/25 00:12:15;;;;;;;3.70;1.77;;;;;;;-146.52;100.00;63329.72;1009908;29;20096;-82
2021/06/25 00:12:46;;;;;;;2.75;1.70;;;;;;;-146.52;100.00;63329.72;1021599;29;20016;-84
2021/06/25 00:13:16;;;;;;;3.72;1.88;;;;;;;-146.52;100.00;63329.72;1017551;29;20024;-84
2021/06/25 00:13:47;;;;;;;3.08;1.80;;;;;;;-146.52;100.00;63329.72;1017962;29;20561;-85
2021/06/25 00:14:21;;;;;;;2.90;1.50;;;;;;;-146.52;100.00;63329.72;1018543;29;20087;-82
2021/06/25 00:14:52;;;;;;;3.58;1.73;;;;;;;-146.52;100.00;63329.72;1018420;29;20122;-82
2021/06/25 00:15:22;;;;;;;3.72;2.17;;;;;;;-146.52;100.00;63329.72;1014835;29;20100;-80
2021/06/25 00:15:53;;;;;;;3.13;1.80;;;;;;;-146.52;100.00;63329.72;1014483;29;20084;-81
2021/06/25 00:16:23;;;;;;;3.28;1.80;;;;;;;-146.52;100.00;63329.72;1009918;29;20021;-81
2021/06/25 00:16:54;;;;;;;3.05;2.00;;;;;;;-146.52;100.00;63329.72;1017987;29;20087;-81
2021/06/25 00:17:25;;;;;;;2.33;1.80;;;;;;;-146.52;100.00;63329.72;1021855;29;20549;-81
2021/06/25 00:17:58;;;;;;;2.83;1.75;;;;;;;-146.52;100.00;63329.72;1017545;29;20016;-82
2021/06/25 00:18:28;;;;;;;3.80;1.80;;;;;;;-146.52;100.00;63329.72;1013947;29;20056;-82
2021/06/25 00:18:59;;;;;;;2.97;1.80;;;;;;;-146.52;100.00;63329.72;1021769;29;20071;-81
2021/06/25 00:19:30;;;;;;;2.95;1.90;;;;;;;-146.52;100.00;63329.72;1017433;29;20028;-80
2021/06/25 00:20:01;;;;;;;2.53;1.42;;;;;;;-146.52;100.00;63329.72;1013235;29;20075;-81
2021/06/25 00:20:31;;;;;;;3.05;1.80;;;;;;;-146.52;100.00;63329.72;1016886;29;20075;-81
2021/06/25 00:21:02;;;;;;;3.30;1.90;;;;;;;-146.52;100.00;63329.72;1016794;29;20023;-81
2021/06/25 00:21:33;;;;;;;5.03;1.92;;;;;;;-146.52;100.00;63329.72;1024676;29;20024;-81
2021/06/25 00:22:04;;;;;;;4.55;1.77;;;;;;;-146.52;100.00;63329.72;1024637;29;20413;-81
2021/06/25 00:22:35;;;;;;;2.40;1.48;;;;;;;-146.52;100.00;63329.72;1012987;29;20060;-81
2021/06/25 00:23:06;;;;;;;3.60;1.70;;;;;;;-146.52;100.00;63329.72;1021319;29;20020;-81
2021/06/25 00:23:36;;;;;;;3.45;1.80;;;;;;;-146.52;100.00;63329.72;1013482;29;20028;-80
2021/06/25 00:24:07;;;;;;;3.20;1.52;;;;;;;-146.52;100.00;63329.72;1020714;29;20016;-80
2021/06/25 00:24:38;;;;;;;5.22;2.40;;;;;;;-146.52;100.00;63329.72;1005065;29;20446;-81
2021/06/25 00:25:09;;;;;;;4.30;1.80;;;;;;;-146.52;100.00;63329.72;1017047;29;20503;-79
2021/06/25 00:25:40;;;;;;;2.60;1.90;;;;;;;-146.52;100.00;63329.72;1016881;29;20092;-80
2021/06/25 00:26:11;;;;;;;3.08;1.60;;;;;;;-146.52;100.00;63329.72;1013343;29;20079;-81
2021/06/25 00:26:43;;;;;;;2.85;1.60;;;;;;;-146.52;100.00;63329.72;1017603;29;20016;-81
2021/06/25 00:27:20;;;;;;;2.33;1.58;;;;;;;-146.52;100.00;63329.72;1018279;29;20126;-82
2021/06/25 00:28:00;;;;;;;2.65;1.88;;;;;;;-146.52;100.00;63329.72;1009974;29;20169;-83
2021/06/25 00:28:34;;;;;;;3.45;2.00;;;;;;;-146.52;100.00;63329.72;1022121;29;20027;-82
2021/06/25 00:29:17;;;;;;;3.00;1.42;;;;;;;-146.52;100.00;63329.72;1019004;29;20092;-82
2021/06/25 00:29:55;;;;;;;2.00;1.63;;;;;;;-146.52;100.00;63329.72;1019632;29;20063;-82
2021/06/25 00:30:26;;;;;;;2.55;1.60;;;;;;;-146.52;100.00;63329.72;1023239;29;20027;-82
2021/06/25 00:30:58;;;;;;;2.55;1.63;;;;;;;-146.52;100.00;63329.72;1014923;29;20028;-83
2021/06/25 00:31:33;;;;;;;2.50;1.60;;;;;;;-146.52;100.00;63329.72;1012442;29;20127;-82
2021/06/25 00:32:11;;;;;;;3.72;1.70;;;;;;;-146.52;100.00;63329.72;1014945;29;20056;-82
2021/06/25 00:32:45;;;;;;;3.88;1.85;;;;;;;-146.52;100.00;63329.72;1017822;29;20028;-82
2021/06/25 00:33:18;;;;;;;2.85;1.70;;;;;;;-146.52;100.00;63329.72;1013668;29;20073;-83
2021/06/25 00:33:50;;;;;;;2.90;1.80;;;;;;;-146.52;100.00;63329.72;1017343;29;20028;-82
2021/06/25 00:34:23;;;;;;;3.13;1.77;;;;;;;-146.52;100.00;63329.72;1017398;29;20108;-82
2021/06/25 00:34:56;;;;;;;4.32;1.85;;;;;;;-146.52;100.00;63329.72;1017381;29;20431;-83
2021/06/25 00:35:28;;;;;;;2.45;1.80;;;;;;;-146.52;100.00;63329.72;1025779;29;20034;-82
2021/06/25 00:36:00;;;;;;;2.53;1.50;;;;;;;-146.52;100.00;63329.72;1014040;29;20029;-81
2021/06/25 00:36:31;;;;;;;3.33;1.83;;;;;;;-146.52;100.00;63329.72;1022343;29;20023;-81
2021/06/25 00:37:04;;;;;;;3.95;2.13;;;;;;;-146.52;100.00;63329.72;1014788;29;20028;-82
2021/06/25 00:37:36;;;;;;;2.35;1.70;;;;;;;-146.52;100.00;63329.72;1015107;29;20055;-82
2021/06/25 00:38:16;;;;;;;2.08;1.67;;;;;;;-146.52;100.00;63329.72;1006073;29;20065;-83
2021/06/25 00:38:47;;;;;;;2.53;1.88;;;;;;;-146.52;100.00;63329.72;1013405;29;20079;-80
2021/06/25 00:39:17;;;;;;;2.17;1.70;;;;;;;-146.52;100.00;63329.72;1020810;29;20490;-80
2021/06/25 00:39:48;;;;;;;3.13;1.90;;;;;;;-146.52;100.00;63329.72;1013041;29;20084;-81
2021/06/25 00:40:19;;;;;;;3.25;1.75;;;;;;;-146.52;100.00;63329.72;1016928;29;20087;-81
2021/06/25 00:40:50;;;;;;;3.95;1.75;;;;;;;-146.52;100.00;63329.72;1013356;29;20120;-81
2021/06/25 00:41:20;;;;;;;2.83;2.10;;;;;;;-146.52;100.00;63329.72;1008834;29;20028;-81
2021/06/25 00:41:51;;;;;;;2.67;1.50;;;;;;;-146.52;100.00;63329.72;1008948;29;20025;-81
2021/06/25 00:42:21;;;;;;;2.75;1.33;;;;;;;-146.52;100.00;63329.72;1016562;29;20119;-80
2021/06/25 00:42:55;;;;;;;2.45;1.40;;;;;;;-146.52;100.00;63329.72;1013019;29;20020;-81
2021/06/25 00:43:26;;;;;;;4.32;1.83;;;;;;;-146.52;100.00;63329.72;1014386;29;20036;-82
2021/06/25 00:43:58;;;;;;;1.90;1.58;;;;;;;-146.52;100.00;63329.72;1019684;29;20055;-82
2021/06/25 00:44:35;;;;;;;2.45;1.60;;;;;;;-146.52;100.00;63329.72;1009986;29;20174;-82
2021/06/25 00:45:19;;;;;;;4.78;1.67;;;;;;;-146.52;100.00;63329.72;1017346;29;20088;-81
2021/06/25 00:45:51;;;;;;;2.22;1.70;;;;;;;-146.52;100.00;63329.72;1013366;29;20113;-82
2021/06/25 00:46:22;;;;;;;2.20;1.50;;;;;;;-146.52;100.00;63329.72;1014410;29;20064;-81
2021/06/25 00:46:53;;;;;;;3.05;1.23;;;;;;;-146.52;100.00;63329.72;1017128;29;20024;-81
2021/06/25 00:47:24;;;;;;;2.67;1.30;;;;;;;-146.52;100.00;63329.72;1017453;29;20039;-81
2021/06/25 00:47:54;;;;;;;2.28;1.58;;;;;;;-146.52;100.00;63329.72;1017046;29;20088;-81
2021/06/25 00:48:25;;;;;;;2.45;1.35;;;;;;;-146.52;100.00;63329.72;1006359;29;20419;-83
2021/06/25 00:48:55;;;;;;;2.35;1.48;;;;;;;-146.52;100.00;63329.72;1014417;29;20040;-80
2021/06/25 00:49:26;;;;;;;2.92;1.50;;;;;;;-146.52;100.00;63329.72;1012841;29;20131;-80
2021/06/25 00:49:57;;;;;;;2.95;1.60;;;;;;;-146.52;100.00;63329.72;1017142;29;20543;-81
2021/06/25 00:50:29;;;;;;;2.78;1.30;;;;;;;-146.52;100.00;63329.72;1016775;29;20250;-80
2021/06/25 00:51:00;;;;;;;2.58;1.48;;;;;;;-146.52;100.00;63329.72;1012501;29;20081;-80
2021/06/25 00:51:32;;;;;;;3.17;1.48;;;;;;;-146.52;100.00;63329.72;1016691;29;20031;-80
2021/06/25 00:52:02;;;;;;;3.22;1.67;;;;;;;-146.52;100.00;63329.72;1013405;29;20060;-81
2021/06/25 00:52:33;;;;;;;2.47;1.20;;;;;;;-146.52;100.00;63329.72;1017181;29;20036;-81
2021/06/25 00:53:04;;;;;;;2.25;1.35;;;;;;;-146.52;100.00;63329.72;1020526;29;20028;-81
2021/06/25 00:53:35;;;;;;;4.60;1.50;;;;;;;-146.52;100.00;63329.72;1020917;29;20023;-80
2021/06/25 00:54:07;;;;;;;2.53;1.35;;;;;;;-146.52;100.00;63329.72;1016772;29;20115;-80
2021/06/25 00:54:37;;;;;;;2.53;1.52;;;;;;;-146.52;100.00;63329.72;1013164;29;20508;-81
2021/06/25 00:55:09;;;;;;;3.60;2.47;;;;;;;-146.52;100.00;63329.72;1008911;29;20040;-80
2021/06/25 00:55:42;;;;;;;4.72;3.65;;;;;;;-146.52;100.00;63329.72;1012823;29;20462;-80
2021/06/25 00:56:13;;;;;;;2.28;1.52;;;;;;;-146.52;100.00;63329.72;1016303;29;20060;-79
2021/06/25 00:56:44;;;;;;;2.35;1.40;;;;;;;-146.52;100.00;63329.72;1020268;29;20030;-80
2021/06/25 00:57:15;;;;;;;2.70;1.75;;;;;;;-146.52;100.00;63329.72;1024145;29;20031;-79
2021/06/25 00:57:46;;;;;;;2.90;1.80;;;;;;;-146.52;100.00;63329.72;1016582;29;20398;-80
2021/06/25 00:58:18;;;;;;;2.60;1.20;;;;;;;-146.52;100.00;63329.72;1012571;29;20039;-80
2021/06/25 00:58:51;;;;;;;3.15;1.42;;;;;;;-146.52;100.00;63329.72;1016661;29;20020;-80
2021/06/25 00:59:22;;;;;;;3.20;1.40;;;;;;;-146.52;100.00;63329.72;1009192;29;20029;-80
2021/06/25 00:59:53;;;;;;;1.88;1.40;;;;;;;-146.52;100.00;63329.72;1013147;29;20036;-82
2021/06/25 01:02:37;;;;;;;2.42;1.35;;;;;;;-146.52;100.00;63329.72;1012278;29;20028;-81
2021/06/25 01:03:58;;;;;;;2.45;1.40;;;;;;;-146.52;100.00;63329.72;1021265;29;20089;-81
2021/06/25 01:05:08;;;;;;;2.25;1.20;;;;;;;-146.52;100.00;63329.72;1023561;29;20114;-81
2021/06/25 01:05:45;;;;;;;2.30;1.00;;;;;;;-146.52;100.00;63329.72;1019940;29;20509;-81
2021/06/25 01:06:16;;;;;;;1.60;1.20;;;;;;;-146.52;100.00;63329.72;1016317;29;20059;-80
2021/06/25 01:06:47;;;;;;;3.10;1.23;;;;;;;-146.52;100.00;63329.72;1023988;29;20098;-81
2021/06/25 01:07:21;;;;;;;2.95;1.58;;;;;;;-146.52;100.00;63329.72;1008355;29;20124;-80
2021/06/25 01:08:01;;;;;;;1.98;1.33;;;;;;;-146.52;100.00;63329.72;1016168;29;20024;-80
2021/06/25 01:08:32;;;;;;;;;;;;;;;-146.52;100.00;63329.72;1016719;29;20058;-80
2021/06/25 01:09:03;;;;;;;1.77;1.30;;;;;;;-146.52;100.00;63329.72;1016956;29;19907;-81
2021/06/25 01:09:35;;;;;;;2.92;1.55;;;;;;;-146.52;100.00;63329.72;1020527;29;20070;-80
2021/06/25 01:10:07;;;;;;;2.05;1.30;;;;;;;-146.52;100.00;63329.72;1012517;29;20059;-81
2021/06/25 01:10:39;;;;;;;2.08;1.25;;;;;;;-146.52;100.00;63329.72;1024371;29;20019;-81
2021/06/25 01:11:10;;;;;;;2.67;1.10;;;;;;;-146.52;100.00;63329.72;1016710;29;20024;-80
2021/06/25 01:11:41;;;;;;;2.10;1.38;;;;;;;-146.52;100.00;63329.72;1016593;29;20115;-81
2021/06/25 01:12:12;;;;;;;1.95;1.33;;;;;;;-146.52;100.00;63329.72;1016491;29;20040;-80
2021/06/25 01:12:53;;;;;;;4.72;1.40;;;;;;;-146.52;100.00;63329.72;1016234;29;20070;-79
2021/06/25 01:13:25;;;;;;;;;;;;;;;-146.52;100.00;63329.72;1019628;29;20115;-79
2021/06/25 01:13:56;;;;;;;3.55;1.23;;;;;;;-146.52;100.00;63329.72;1019440;29;20006;-81
2021/06/25 01:14:26;;;;;;;3.40;1.38;;;;;;;-146.52;100.00;63329.72;1016126;29;20469;-80
2021/06/25 01:14:57;;;;;;;2.40;1.10;;;;;;;-146.52;100.00;63329.72;1016447;29;20490;-82
2021/06/25 01:15:28;;;;;;;1.52;1.40;;;;;;;-146.52;100.00;63329.72;1020112;28;20024;-80
2021/06/25 01:15:59;;;;;;;1.92;1.27;;;;;;;-146.52;100.00;63329.72;1020221;29;20120;-80
2021/06/25 01:16:30;;;;;;;3.35;1.33;;;;;;;-146.52;100.00;63329.72;1016211;29;20024;-80
2021/06/25 01:17:02;;;;;;;2.25;1.45;;;;;;;-146.52;100.00;63329.72;1019877;29;20023;-80
2021/06/25 01:17:37;;;;;;;2.67;1.27;;;;;;;-146.52;100.00;63329.72;1012102;29;20028;-81
2021/06/25 01:18:08;;;;;;;2.08;1.23;;;;;;;-146.52;100.00;63329.72;1016212;29;20499;-81
2021/06/25 01:18:38;;;;;;;1.80;1.27;;;;;;;-146.52;100.00;63329.72;1008377;29;20115;-80
2021/06/25 01:19:13;;;;;;;1.95;1.13;;;;;;;-146.52;100.00;63329.72;1012171;29;20029;-80
2021/06/25 01:19:47;;;;;;;3.00;1.40;;;;;;;-146.52;100.00;63329.72;1008196;29;20060;-80
2021/06/25 01:20:25;;;;;;;2.78;1.30;;;;;;;-146.52;100.00;63329.72;1008588;29;20021;-79
2021/06/25 01:20:57;;;;;;;2.65;1.25;;;;;;;-146.52;100.00;63329.72;1008395;29;20033;-80
2021/06/25 01:21:27;;;;;;;3.50;1.25;;;;;;;-146.52;100.00;63329.72;1021286;29;20086;-80
2021/06/25 01:21:58;;;;;;;2.25;1.00;;;;;;;-146.52;100.00;63329.72;1023729;29;20004;-80
2021/06/25 01:22:34;;;;;;;3.17;1.50;;;;;;;-146.52;100.00;63329.72;1019705;29;20020;-80
2021/06/25 01:23:05;;;;;;;2.00;1.17;;;;;;;-146.52;100.00;63329.72;1023377;29;20054;-82
2021/06/25 01:23:37;;;;;;;3.00;1.30;;;;;;;-146.52;100.00;63329.72;1014346;29;20031;-82
2021/06/25 01:24:08;;;;;;;1.48;1.20;;;;;;;-146.52;100.00;63329.72;1025919;29;20023;-80
2021/06/25 01:24:39;;;;;;;2.88;1.27;;;;;;;-146.52;100.00;63329.72;1022274;29;20031;-81
2021/06/25 01:25:22;;;;;;;1.92;1.45;;;;;;;-146.52;100.00;63329.72;1014502;29;20089;-81
2021/06/25 01:25:54;;;;;;;2.80;1.10;;;;;;;-146.52;100.00;63329.72;1020929;28;20027;-81
2021/06/25 01:26:24;;;;;;;3.10;1.60;;;;;;;-146.52;100.00;63329.72;1012934;29;20024;-81
2021/06/25 01:26:55;;;;;;;1.55;1.10;;;;;;;-146.52;100.00;63329.72;1016652;29;20024;-81
2021/06/25 01:27:26;;;;;;;1.52;1.23;;;;;;;-146.52;100.00;63329.72;1016532;29;20180;-82
2021/06/25 01:27:58;;;;;;;2.63;1.25;;;;;;;-146.52;100.00;63329.72;1012586;29;20148;-81
2021/06/25 01:28:29;;;;;;;2.75;1.55;;;;;;;-146.52;100.00;63329.72;1012873;29;20029;-82
2021/06/25 01:28:59;;;;;;;2.20;1.42;;;;;;;-146.52;100.00;63329.72;1020993;29;20498;-81
2021/06/25 01:29:30;;;;;;;2.55;1.20;;;;;;;-146.52;100.00;63329.72;1024708;28;20023;-82
2021/06/25 01:30:01;;;;;;;1.83;0.90;;;;;;;-146.52;100.00;63329.72;1020776;29;20031;-82
2021/06/25 01:30:36;;;;;;;1.88;0.93;;;;;;;-146.52;100.00;63329.72;1020674;29;20055;-83
2021/06/25 01:31:07;;;;;;;2.45;1.10;;;;;;;-146.52;100.00;63329.72;1016464;29;20024;-81
2021/06/25 01:31:38;;;;;;;2.40;1.23;;;;;;;-146.52;100.00;63329.72;1012434;29;20096;-81
2021/06/25 01:32:08;;;;;;;2.60;1.00;;;;;;;-146.52;100.00;63329.72;1004776;29;20073;-81
2021/06/25 01:32:39;;;;;;;2.47;1.40;;;;;;;-146.52;100.00;63329.72;1016264;29;20466;-81
2021/06/25 01:33:12;;;;;;;4.45;1.17;;;;;;;-146.52;100.00;63329.72;1012371;29;20029;-81
2021/06/25 01:33:43;;;;;;;2.05;1.13;;;;;;;-146.52;100.00;63329.72;1020121;29;20481;-81
2021/06/25 01:34:14;;;;;;;2.53;1.17;;;;;;;-146.52;100.00;63329.72;1016199;29;20029;-81
2021/06/25 01:34:46;;;;;;;2.45;1.40;;;;;;;-146.52;100.00;63329.72;1024598;29;20034;-83
2021/06/25 01:35:16;;;;;;;2.45;1.48;;;;;;;-146.52;100.00;63329.72;1016360;29;20062;-81
2021/06/25 01:35:47;;;;;;;2.13;1.13;;;;;;;-146.52;100.00;63329.72;1016433;29;20036;-81
2021/06/25 01:36:18;;;;;;;1.77;1.02;;;;;;;-146.52;100.00;63329.72;1012862;29;20133;-81
2021/06/25 01:36:49;;;;;;;2.15;1.25;;;;;;;-146.52;100.00;63329.72;1016583;29;20052;-80
2021/06/25 01:37:20;;;;;;;2.35;1.10;;;;;;;-146.52;100.00;63329.72;1012414;29;20025;-82
2021/06/25 01:37:51;;;;;;;2.50;1.10;;;;;;;-146.52;100.00;63329.72;1012829;29;20119;-83
2021/06/25 01:38:22;;;;;;;1.50;1.10;;;;;;;-146.52;100.00;63329.72;1017133;29;20119;-83
2021/06/25 01:38:53;;;;;;;1.92;1.20;;;;;;;-146.52;100.00;63329.72;1020703;29;20497;-81
2021/06/25 01:39:24;;;;;;;1.60;1.00;;;;;;;-146.52;100.00;63329.72;1008819;29;20025;-81
2021/06/25 01:39:55;;;;;;;2.30;1.20;;;;;;;-146.52;100.00;63329.72;1020315;29;20026;-81
2021/06/25 01:40:25;;;;;;;1.60;1.10;;;;;;;-146.52;100.00;63329.72;1012624;29;20025;-84
2021/06/25 01:40:56;;;;;;;1.75;1.15;;;;;;;-146.52;100.00;63329.72;1020261;29;20028;-81
2021/06/25 01:41:27;;;;;;;3.40;1.58;;;;;;;-146.52;100.00;63329.72;1008603;29;20033;-80
2021/06/25 01:41:57;;;;;;;1.70;1.15;;;;;;;-146.52;100.00;63329.72;1016447;29;20024;-80
2021/06/25 01:42:30;;;;;;;2.40;1.10;;;;;;;-146.52;100.00;63329.72;1012611;29;20072;-80
2021/06/25 01:43:00;;;;;;;2.22;1.00;;;;;;;-146.52;100.00;63329.72;1017092;29;20039;-80
2021/06/25 01:43:31;;;;;;;1.80;1.30;;;;;;;-146.52;100.00;63329.72;1016341;29;20024;-80
2021/06/25 01:44:02;;;;;;;1.88;1.10;;;;;;;-146.52;100.00;63329.72;1016531;29;20506;-80
2021/06/25 01:44:35;;;;;;;3.40;1.02;;;;;;;-146.52;100.00;63329.72;968231;29;1419654;-80
2021/06/25 01:45:13;;;;;;;2.22;1.10;;;;;;;-146.52;100.00;63329.72;1012423;29;20037;-80
2021/06/25 01:45:44;;;;;;;2.47;1.30;;;;;;;-146.52;100.00;63329.72;1008710;29;20452;-80
2021/06/25 01:46:15;;;;;;;1.65;1.10;;;;;;;-146.52;100.00;63329.72;1008656;29;20044;-80
2021/06/25 01:46:46;;;;;;;2.10;1.23;;;;;;;-146.52;100.00;63329.72;1008822;29;20050;-81
2021/06/25 01:47:16;;;;;;;2.25;1.17;;;;;;;-146.52;100.00;63329.72;1008433;29;20029;-80
2021/06/25 01:47:48;;;;;;;2.97;1.35;;;;;;;-146.52;100.00;63329.72;1012306;29;20096;-80
2021/06/25 01:48:18;;;;;;;2.08;1.00;;;;;;;-146.52;100.00;63329.72;1020396;29;20469;-81
2021/06/25 01:48:49;;;;;;;2.42;1.10;;;;;;;-146.52;100.00;63329.72;1008741;29;20068;-81
2021/06/25 01:49:20;;;;;;;1.48;1.08;;;;;;;-146.52;100.00;63329.72;1020383;29;20201;-80
2021/06/25 01:49:50;;;;;;;2.50;1.20;;;;;;;-146.52;100.00;63329.72;1016405;29;20024;-81
2021/06/25 01:50:24;;;;;;;1.45;1.00;;;;;;;-146.52;100.00;63329.72;1016313;29;20031;-81
2021/06/25 01:50:54;;;;;;;1.73;0.98;;;;;;;-146.52;100.00;63329.72;1012465;29;20093;-81
2021/06/25 01:51:25;;;;;;;1.33;0.98;;;;;;;-146.52;100.00;63329.72;1020440;29;20466;-81
2021/06/25 01:51:56;;;;;;;2.85;1.10;;;;;;;-146.52;100.00;63329.72;1020317;29;20023;-81
2021/06/25 01:52:26;;;;;;;2.22;1.27;;;;;;;-146.52;100.00;63329.72;1016630;29;20032;-81
2021/06/25 01:53:02;;;;;;;2.97;1.10;;;;;;;-146.52;100.00;63329.72;1008765;29;20480;-81
2021/06/25 01:53:34;;;;;;;1.90;1.08;;;;;;;-146.52;100.00;63329.72;1008800;29;20028;-81
2021/06/25 01:54:06;;;;;;;2.45;1.30;;;;;;;-146.52;100.00;63329.72;1016122;29;20407;-81
2021/06/25 01:54:36;;;;;;;2.85;1.42;;;;;;;-146.52;100.00;63329.72;1008664;29;20127;-81
2021/06/25 01:55:08;;;;;;;1.95;1.35;;;;;;;-146.52;100.00;63329.72;1020920;29;20407;-81
2021/06/25 01:55:41;;;;;;;1.30;1.13;;;;;;;-146.52;100.00;63329.72;1017476;29;20024;-81
2021/06/25 01:56:12;;;;;;;1.50;1.15;;;;;;;-146.52;100.00;63329.72;1020199;29;20570;-80
2021/06/25 02:01:14;;;;;;;2.08;1.10;;;;;;;-146.52;100.00;63329.72;1019158;29;20036;-82
2021/06/25 02:01:45;;;;;;;1.52;1.10;;;;;;;-146.52;100.00;63329.72;1024317;29;20043;-82
2021/06/25 02:02:15;;;;;;;1.20;0.90;;;;;;;-146.52;100.00;63329.72;1026566;29;20138;-82
2021/06/25 02:02:46;;;;;;;3.97;1.08;;;;;;;-146.52;100.00;63329.72;1028263;29;20034;-82
2021/06/25 02:03:17;;;;;;;1.70;1.00;;;;;;;-146.52;100.00;63329.72;1028037;29;20027;-82
2021/06/25 02:03:50;;;;;;;4.68;1.20;;;;;;;-146.52;100.00;63329.72;1024254;29;20024;-82
2021/06/25 02:04:21;;;;;;;2.25;1.00;;;;;;;-146.52;100.00;63329.72;1024689;29;20023;-82
2021/06/25 02:04:51;;;;;;;2.83;1.30;;;;;;;-146.52;100.00;63329.72;1024260;29;20114;-82
2021/06/25 02:05:22;;;;;;;1.52;1.08;;;;;;;-146.52;100.00;63329.72;1024791;29;20019;-82
2021/06/25 02:05:52;;;;;;;2.13;1.10;;;;;;;-146.52;100.00;63329.72;1028488;29;20067;-82
2021/06/25 02:06:23;;;;;;;1.05;0.95;;;;;;;-146.52;100.00;63329.72;1028358;28;20138;-81
2021/06/25 02:06:54;;;;;;;1.85;1.00;;;;;;;-146.52;100.00;63329.72;1014792;29;20028;-80
2021/06/25 02:07:31;;;;;;;1.77;1.20;;;;;;;-146.52;100.00;63329.72;1019443;29;20079;-82
2021/06/25 02:08:01;;;;;;;1.73;1.00;;;;;;;-146.52;100.00;63329.72;1021872;29;20024;-81
2021/06/25 02:08:33;;;;;;;1.48;0.90;;;;;;;-146.52;100.00;63329.72;1018118;29;20043;-82
2021/06/25 02:09:07;;;;;;;2.30;1.20;;;;;;;-146.52;100.00;63329.72;1018235;29;20016;-81
2021/06/25 02:09:48;;;;;;;1.95;1.23;;;;;;;-146.52;100.00;63329.72;1018526;29;20072;-81
2021/06/25 02:10:19;;;;;;;2.17;1.20;;;;;;;-146.52;100.00;63329.72;1023608;29;20027;-82
2021/06/25 02:10:51;;;;;;;2.83;1.15;;;;;;;-146.52;100.00;63329.72;1023474;29;20004;-82
2021/06/25 02:11:23;;;;;;;3.67;1.25;;;;;;;-146.52;100.00;63329.72;1027344;28;20026;-82
2021/06/25 02:11:54;;;;;;;2.50;1.02;;;;;;;-146.52;100.00;63329.72;1023879;29;20020;-83
2021/06/25 02:12:40;;;;;;;2.47;1.00;;;;;;;-146.52;100.00;63329.72;1023295;29;20075;-82
2021/06/25 02:13:21;;;;;;;2.70;1.25;;;;;;;-146.52;100.00;63329.72;1014301;29;20025;-81
2021/06/25 02:14:02;;;;;;;2.40;1.33;;;;;;;-146.52;100.00;63329.72;1022379;29;20023;-80
2021/06/25 02:14:33;;;;;;;1.85;0.90;;;;;;;-146.52;100.00;63329.72;1011486;29;20025;-87
2021/06/25 02:15:06;;;;;;;2.00;0.98;;;;;;;-146.52;100.00;63329.72;1019309;29;20044;-81
2021/06/25 02:15:39;;;;;;;1.98;1.20;;;;;;;-146.52;100.00;63329.72;1015379;29;20083;-82
2021/06/25 02:16:12;;;;;;;2.22;1.42;;;;;;;-146.52;100.00;63329.72;1023897;29;20026;-80
2021/06/25 02:16:44;;;;;;;2.15;1.15;;;;;;;-146.52;100.00;63329.72;1015971;29;20021;-82
2021/06/25 02:17:24;;;;;;;1.48;1.20;;;;;;;-146.52;100.00;63329.72;1015771;29;20057;-80
2021/06/25 02:18:01;;;;;;;2.47;1.42;;;;;;;-146.52;100.00;63329.72;1023516;29;20024;-85
2021/06/25 02:18:42;;;;;;;1.30;1.10;;;;;;;-146.52;100.00;63329.72;1016116;29;20029;-81
2021/06/25 02:19:19;;;;;;;2.00;1.35;;;;;;;-146.52;100.00;63329.72;1019943;29;20096;-84
2021/06/25 02:19:52;;;;;;;1.63;0.93;;;;;;;-146.52;100.00;63329.72;1019734;29;20032;-81
2021/06/25 02:20:23;;;;;;;2.38;1.10;;;;;;;-146.52;100.00;63329.72;1017869;29;20052;-79
2021/06/25 02:20:56;;;;;;;2.38;1.23;;;;;;;-146.52;100.00;63329.72;1017587;29;20079;-82
2021/06/25 02:21:36;;;;;;;1.35;1.20;;;;;;;-146.52;100.00;63329.72;1019102;29;20028;-81
2021/06/25 02:22:13;;;;;;;2.58;1.30;;;;;;;-146.52;100.00;63329.72;1018649;29;20108;-82
2021/06/25 02:22:44;;;;;;;1.63;1.00;;;;;;;-146.52;100.00;63329.72;1024148;29;20020;-83
2021/06/25 02:23:15;;;;;;;2.17;1.00;;;;;;;-146.52;100.00;63329.72;1024802;29;20028;-81
2021/06/25 02:23:46;;;;;;;1.55;0.90;;;;;;;-146.52;100.00;63329.72;1024523;29;20039;-80
2021/06/25 02:24:16;;;;;;;5.40;1.02;;;;;;;-146.52;100.00;63329.72;1028338;28;20011;-82
2021/06/25 02:24:47;;;;;;;2.35;1.30;;;;;;;-146.52;100.00;63329.72;1019734;29;20120;-82
2021/06/25 02:25:17;;;;;;;2.92;1.20;;;;;;;-146.52;100.00;63329.72;1020777;29;20008;-82
2021/06/25 02:25:48;;;;;;;1.65;1.00;;;;;;;-146.52;100.00;63329.72;1021065;29;20016;-82
2021/06/25 02:26:18;;;;;;;1.80;0.98;;;;;;;-146.52;100.00;63329.72;1025247;29;20027;-81
2021/06/25 02:26:49;;;;;;;2.28;0.95;;;;;;;-146.52;100.00;63329.72;1029207;28;20027;-82
2021/06/25 02:27:20;;;;;;;1.35;0.95;;;;;;;-146.52;100.00;63329.72;1021517;29;20022;-82
2021/06/25 02:27:50;;;;;;;1.48;0.90;;;;;;;-146.52;100.00;63329.72;1029286;28;20110;-81
2021/06/25 02:28:21;;;;;;;1.90;1.10;;;;;;;-146.52;100.00;63329.72;1019653;29;20025;-81
2021/06/25 02:28:52;;;;;;;2.83;0.80;;;;;;;-146.52;100.00;63329.72;1016988;29;20027;-81
2021/06/25 02:29:22;;;;;;;1.10;0.90;;;;;;;-146.52;100.00;63329.72;1021793;29;20093;-81
2021/06/25 02:29:53;;;;;;;2.47;0.80;;;;;;;-146.52;100.00;63329.72;1021566;29;20011;-82
2021/06/25 02:30:24;;;;;;;2.05;0.95;;;;;;;-146.52;100.00;63329.72;1021771;29;20016;-81
2021/06/25 02:30:55;;;;;;;1.00;0.90;;;;;;;-146.52;100.00;63329.72;1021335;29;20072;-80
2021/06/25 02:31:25;;;;;;;1.48;1.00;;;;;;;-146.52;100.00;63329.72;1017745;29;20027;-82
2021/06/25 02:31:56;;;;;;;0.93;0.82;;;;;;;-146.52;100.00;63329.72;1017150;29;20028;-80
2021/06/25 02:32:27;;;;;;;2.25;1.20;;;;;;;-146.52;100.00;63329.72;1021904;29;20000;-81
2021/06/25 02:32:58;;;;;;;2.08;0.82;;;;;;;-146.52;100.00;63329.72;1024222;29;20091;-81
2021/06/25 02:33:29;;;;;;;1.38;0.93;;;;;;;-146.52;100.00;63329.72;1025965;29;20016;-82
2021/06/25 02:34:03;;;;;;;1.83;0.93;;;;;;;-146.52;100.00;63329.72;1025454;29;20004;-82